Quinhagak, Alaska
Current Conditions -  °F | °C
As of 10:23 AM on Saturday 25 Oct 2014 (Local Time) from PAQH Reporting Station
Broken Clouds Broken Clouds  
Wind Chill: 26°   Ceiling: 3200
Heat Index: 34°   Visibility: 10mi
Dew Point: 28°   Wind: 9mph
Humidity: 81%   Direction: 130°SE
Pressure: 29.84"   Gusts: NA
Location:  59.75°N, 161.92°W
Report Text: PAQH 251823Z AUTO 13008KT 10SM SCT023 BKN032 01/M02 A2984 RMK AO2 RAB1757E20SNB1759E13 P0000 FZRANO
Loading
Personal Weather Stations






























Interactive Weather Map
Tropical Storm Tracking
New forecast layout! Learn more

10-Day Weather Forecast

Advertisements
Track Severe Weather on mobile